sensor_id;sensor_type;location;lat;lon;timestamp;temperature;humidity
19342;DHT22;9807;48.258;12.690;2023-06-14T00:01:01;19.10;99.90
19342;DHT22;9807;48.258;12.690;2023-06-14T00:03:31;19.10;99.90
19342;DHT22;9807;48.258;12.690;2023-06-14T00:05:57;19.10;99.90
19342;DHT22;9807;48.258;12.690;2023-06-14T00:08:26;19.10;99.90
19342;DHT22;9807;48.258;12.690;2023-06-14T00:10:51;19.00;99.90
19342;DHT22;9807;48.258;12.690;2023-06-14T00:13:17;18.60;99.90
19342;DHT22;9807;48.258;12.690;2023-06-14T00:15:43;18.30;99.90
19342;DHT22;9807;48.258;12.690;2023-06-14T00:18:09;18.30;99.90
19342;DHT22;9807;48.258;12.690;2023-06-14T00:20:37;18.40;99.90
19342;DHT22;9807;48.258;12.690;2023-06-14T00:23:02;18.50;99.90
19342;DHT22;9807;48.258;12.690;2023-06-14T00:25:28;18.60;99.90
19342;DHT22;9807;48.258;12.690;2023-06-14T00:27:58;18.60;99.90
19342;DHT22;9807;48.258;12.690;2023-06-14T00:30:27;18.70;99.90
19342;DHT22;9807;48.258;12.690;2023-06-14T00:32:56;18.70;99.90
19342;DHT22;9807;48.258;12.690;2023-06-14T00:35:25;18.80;99.90
19342;DHT22;9807;48.258;12.690;2023-06-14T00:37:50;18.80;99.90
19342;DHT22;9807;48.258;12.690;2023-06-14T00:40:18;18.80;99.90
19342;DHT22;9807;48.258;12.690;2023-06-14T00:42:44;18.80;99.90
19342;DHT22;9807;48.258;12.690;2023-06-14T00:45:10;18.80;99.90
19342;DHT22;9807;48.258;12.690;2023-06-14T00:47:41;18.70;99.90
19342;DHT22;9807;48.258;12.690;2023-06-14T00:50:07;18.70;99.90
19342;DHT22;9807;48.258;12.690;2023-06-14T00:52:34;18.70;99.90
19342;DHT22;9807;48.258;12.690;2023-06-14T00:55:00;18.70;99.90
19342;DHT22;9807;48.258;12.690;2023-06-14T00:57:27;18.70;99.90
19342;DHT22;9807;48.258;12.690;2023-06-14T00:59:53;18.60;99.90
19342;DHT22;9807;48.258;12.690;2023-06-14T01:02:19;18.60;99.90
19342;DHT22;9807;48.258;12.690;2023-06-14T01:04:47;18.50;99.90
19342;DHT22;9807;48.258;12.690;2023-06-14T01:10:14;18.50;99.90
19342;DHT22;9807;48.258;12.690;2023-06-14T01:13:05;18.50;99.90
19342;DHT22;9807;48.258;12.690;2023-06-14T01:15:33;18.40;99.90
19342;DHT22;9807;48.258;12.690;2023-06-14T01:17:59;18.40;99.90
19342;DHT22;9807;48.258;12.690;2023-06-14T01:20:32;18.40;99.90
19342;DHT22;9807;48.258;12.690;2023-06-14T01:22:59;18.30;99.90
19342;DHT22;9807;48.258;12.690;2023-06-14T01:25:25;18.30;99.90
19342;DHT22;9807;48.258;12.690;2023-06-14T01:28:00;18.30;99.90
19342;DHT22;9807;48.258;12.690;2023-06-14T01:30:27;18.20;99.90
19342;DHT22;9807;48.258;12.690;2023-06-14T01:32:54;18.10;99.90
19342;DHT22;9807;48.258;12.690;2023-06-14T01:35:28;17.90;99.90
19342;DHT22;9807;48.258;12.690;2023-06-14T01:37:54;17.80;99.90
19342;DHT22;9807;48.258;12.690;2023-06-14T01:40:20;17.70;99.90
19342;DHT22;9807;48.258;12.690;2023-06-14T01:42:49;17.60;99.90
19342;DHT22;9807;48.258;12.690;2023-06-14T01:45:15;17.20;99.90
19342;DHT22;9807;48.258;12.690;2023-06-14T01:47:42;17.10;99.90
19342;DHT22;9807;48.258;12.690;2023-06-14T01:50:18;17.20;99.90
19342;DHT22;9807;48.258;12.690;2023-06-14T01:52:44;17.20;99.90
19342;DHT22;9807;48.258;12.690;2023-06-14T01:55:10;17.40;99.90
19342;DHT22;9807;48.258;12.690;2023-06-14T01:57:36;17.40;99.90
19342;DHT22;9807;48.258;12.690;2023-06-14T02:00:02;17.40;99.90
19342;DHT22;9807;48.258;12.690;2023-06-14T02:02:29;17.50;99.90
19342;DHT22;9807;48.258;12.690;2023-06-14T02:04:55;17.40;99.90
19342;DHT22;9807;48.258;12.690;2023-06-14T02:07:23;17.50;99.90
19342;DHT22;9807;48.258;12.690;2023-06-14T02:09:49;17.60;99.90
19342;DHT22;9807;48.258;12.690;2023-06-14T02:12:15;17.70;99.90
19342;DHT22;9807;48.258;12.690;2023-06-14T02:14:40;17.70;99.90
19342;DHT22;9807;48.258;12.690;2023-06-14T02:17:06;17.60;99.90
19342;DHT22;9807;48.258;12.690;2023-06-14T02:19:33;17.50;99.90
19342;DHT22;9807;48.258;12.690;2023-06-14T02:21:58;17.60;99.90
19342;DHT22;9807;48.258;12.690;2023-06-14T02:24:28;17.60;99.90
19342;DHT22;9807;48.258;12.690;2023-06-14T02:26:53;17.70;99.90
19342;DHT22;9807;48.258;12.690;2023-06-14T02:29:19;17.70;99.90
19342;DHT22;9807;48.258;12.690;2023-06-14T02:31:45;17.70;99.90
19342;DHT22;9807;48.258;12.690;2023-06-14T02:34:12;17.80;99.90
19342;DHT22;9807;48.258;12.690;2023-06-14T02:36:42;17.70;99.90
19342;DHT22;9807;48.258;12.690;2023-06-14T02:39:09;17.80;99.90
19342;DHT22;9807;48.258;12.690;2023-06-14T02:41:35;17.80;99.90
19342;DHT22;9807;48.258;12.690;2023-06-14T02:44:04;17.90;99.90
19342;DHT22;9807;48.258;12.690;2023-06-14T02:46:30;17.90;99.90
19342;DHT22;9807;48.258;12.690;2023-06-14T02:48:55;17.90;99.90
19342;DHT22;9807;48.258;12.690;2023-06-14T02:51:24;17.90;99.90
19342;DHT22;9807;48.258;12.690;2023-06-14T02:53:50;17.80;99.90
19342;DHT22;9807;48.258;12.690;2023-06-14T02:56:16;17.80;99.90
19342;DHT22;9807;48.258;12.690;2023-06-14T02:58:43;17.80;99.90
19342;DHT22;9807;48.258;12.690;2023-06-14T03:01:08;17.70;99.90
19342;DHT22;9807;48.258;12.690;2023-06-14T03:03:40;17.60;99.90
19342;DHT22;9807;48.258;12.690;2023-06-14T03:06:12;17.60;99.90
19342;DHT22;9807;48.258;12.690;2023-06-14T03:08:42;17.70;99.90
19342;DHT22;9807;48.258;12.690;2023-06-14T03:11:07;17.60;99.90
19342;DHT22;9807;48.258;12.690;2023-06-14T03:13:36;17.70;99.90
19342;DHT22;9807;48.258;12.690;2023-06-14T03:16:04;17.70;99.90
19342;DHT22;9807;48.258;12.690;2023-06-14T03:18:32;17.70;99.90
19342;DHT22;9807;48.258;12.690;2023-06-14T03:21:01;17.70;99.90
19342;DHT22;9807;48.258;12.690;2023-06-14T03:23:28;17.70;99.90
19342;DHT22;9807;48.258;12.690;2023-06-14T03:25:53;17.40;99.90
19342;DHT22;9807;48.258;12.690;2023-06-14T03:28:19;17.30;99.90
19342;DHT22;9807;48.258;12.690;2023-06-14T03:30:45;17.30;99.90
19342;DHT22;9807;48.258;12.690;2023-06-14T03:33:11;17.40;99.90
19342;DHT22;9807;48.258;12.690;2023-06-14T03:35:39;17.40;99.90
19342;DHT22;9807;48.258;12.690;2023-06-14T03:38:05;17.30;99.90
19342;DHT22;9807;48.258;12.690;2023-06-14T03:40:31;17.40;99.90
19342;DHT22;9807;48.258;12.690;2023-06-14T03:42:57;17.40;99.90
19342;DHT22;9807;48.258;12.690;2023-06-14T03:45:23;17.40;99.90
19342;DHT22;9807;48.258;12.690;2023-06-14T03:47:48;17.40;99.90
19342;DHT22;9807;48.258;12.690;2023-06-14T03:50:16;17.50;99.90
19342;DHT22;9807;48.258;12.690;2023-06-14T03:52:42;17.50;99.90
19342;DHT22;9807;48.258;12.690;2023-06-14T03:55:09;17.50;99.90
19342;DHT22;9807;48.258;12.690;2023-06-14T03:57:36;17.50;99.90
19342;DHT22;9807;48.258;12.690;2023-06-14T04:00:01;17.60;99.90
19342;DHT22;9807;48.258;12.690;2023-06-14T04:02:30;17.40;99.90
19342;DHT22;9807;48.258;12.690;2023-06-14T04:04:56;17.30;99.90
19342;DHT22;9807;48.258;12.690;2023-06-14T04:07:24;17.30;99.90
19342;DHT22;9807;48.258;12.690;2023-06-14T04:09:54;17.40;99.90
19342;DHT22;9807;48.258;12.690;2023-06-14T04:12:20;17.50;99.90
19342;DHT22;9807;48.258;12.690;2023-06-14T04:14:51;17.50;99.90
19342;DHT22;9807;48.258;12.690;2023-06-14T04:17:23;17.60;99.90
19342;DHT22;9807;48.258;12.690;2023-06-14T04:19:48;17.60;99.90
19342;DHT22;9807;48.258;12.690;2023-06-14T04:22:14;17.60;99.90
19342;DHT22;9807;48.258;12.690;2023-06-14T04:24:40;17.70;99.90
19342;DHT22;9807;48.258;12.690;2023-06-14T04:27:08;17.60;99.90
19342;DHT22;9807;48.258;12.690;2023-06-14T04:29:34;17.20;99.90
19342;DHT22;9807;48.258;12.690;2023-06-14T04:32:00;16.80;99.90
19342;DHT22;9807;48.258;12.690;2023-06-14T04:34:28;16.50;99.90
19342;DHT22;9807;48.258;12.690;2023-06-14T04:37:02;16.20;99.90
19342;DHT22;9807;48.258;12.690;2023-06-14T04:39:31;16.40;99.90
19342;DHT22;9807;48.258;12.690;2023-06-14T04:41:57;16.70;99.90
19342;DHT22;9807;48.258;12.690;2023-06-14T04:44:26;17.00;99.90
19342;DHT22;9807;48.258;12.690;2023-06-14T04:46:57;17.20;99.90
19342;DHT22;9807;48.258;12.690;2023-06-14T04:49:24;17.40;99.90
19342;DHT22;9807;48.258;12.690;2023-06-14T04:51:51;17.50;99.90
19342;DHT22;9807;48.258;12.690;2023-06-14T04:54:23;17.60;99.90
19342;DHT22;9807;48.258;12.690;2023-06-14T04:56:51;17.70;99.90
19342;DHT22;9807;48.258;12.690;2023-06-14T04:59:19;17.80;99.90
19342;DHT22;9807;48.258;12.690;2023-06-14T05:01:47;17.80;99.90
19342;DHT22;9807;48.258;12.690;2023-06-14T05:04:15;17.90;99.90
19342;DHT22;9807;48.258;12.690;2023-06-14T05:06:44;17.90;99.90
19342;DHT22;9807;48.258;12.690;2023-06-14T05:09:12;18.00;99.90
19342;DHT22;9807;48.258;12.690;2023-06-14T05:11:38;18.00;99.90
19342;DHT22;9807;48.258;12.690;2023-06-14T05:14:08;18.10;99.90
19342;DHT22;9807;48.258;12.690;2023-06-14T05:16:36;18.10;99.90
19342;DHT22;9807;48.258;12.690;2023-06-14T05:19:03;18.20;99.90
19342;DHT22;9807;48.258;12.690;2023-06-14T05:21:33;17.90;99.90
19342;DHT22;9807;48.258;12.690;2023-06-14T05:24:01;18.00;99.90
19342;DHT22;9807;48.258;12.690;2023-06-14T05:26:31;18.20;99.90
19342;DHT22;9807;48.258;12.690;2023-06-14T05:28:57;18.30;99.90
19342;DHT22;9807;48.258;12.690;2023-06-14T05:31:32;18.40;99.90
19342;DHT22;9807;48.258;12.690;2023-06-14T05:33:58;18.60;99.90
19342;DHT22;9807;48.258;12.690;2023-06-14T05:36:24;18.70;99.90
19342;DHT22;9807;48.258;12.690;2023-06-14T05:38:50;18.80;99.90
19342;DHT22;9807;48.258;12.690;2023-06-14T05:41:26;19.00;99.90
19342;DHT22;9807;48.258;12.690;2023-06-14T05:43:54;18.60;99.90
19342;DHT22;9807;48.258;12.690;2023-06-14T05:46:20;18.60;99.90
19342;DHT22;9807;48.258;12.690;2023-06-14T05:48:48;18.90;99.90
19342;DHT22;9807;48.258;12.690;2023-06-14T05:51:14;19.10;99.90
19342;DHT22;9807;48.258;12.690;2023-06-14T05:53:45;19.00;99.90
19342;DHT22;9807;48.258;12.690;2023-06-14T05:56:12;19.20;99.90
19342;DHT22;9807;48.258;12.690;2023-06-14T05:58:37;19.60;99.90
19342;DHT22;9807;48.258;12.690;2023-06-14T06:01:03;19.90;99.90
19342;DHT22;9807;48.258;12.690;2023-06-14T06:03:29;20.30;99.90
19342;DHT22;9807;48.258;12.690;2023-06-14T06:05:55;20.80;99.90
19342;DHT22;9807;48.258;12.690;2023-06-14T06:08:26;21.10;99.90
19342;DHT22;9807;48.258;12.690;2023-06-14T06:10:51;21.50;99.90
19342;DHT22;9807;48.258;12.690;2023-06-14T06:13:17;21.70;99.90
19342;DHT22;9807;48.258;12.690;2023-06-14T06:15:43;22.00;99.90
19342;DHT22;9807;48.258;12.690;2023-06-14T06:18:09;22.10;99.90
19342;DHT22;9807;48.258;12.690;2023-06-14T06:20:34;22.30;99.90
19342;DHT22;9807;48.258;12.690;2023-06-14T06:23:02;22.60;99.90
19342;DHT22;9807;48.258;12.690;2023-06-14T06:25:28;22.80;99.90
19342;DHT22;9807;48.258;12.690;2023-06-14T06:27:55;23.00;99.90
19342;DHT22;9807;48.258;12.690;2023-06-14T06:30:24;23.30;99.90
19342;DHT22;9807;48.258;12.690;2023-06-14T06:32:50;23.50;99.90
19342;DHT22;9807;48.258;12.690;2023-06-14T06:35:16;23.30;99.90
19342;DHT22;9807;48.258;12.690;2023-06-14T06:37:42;23.30;99.90
19342;DHT22;9807;48.258;12.690;2023-06-14T06:40:08;23.50;99.90
19342;DHT22;9807;48.258;12.690;2023-06-14T06:42:35;23.90;99.90
19342;DHT22;9807;48.258;12.690;2023-06-14T06:45:01;24.10;99.90
19342;DHT22;9807;48.258;12.690;2023-06-14T06:47:27;24.30;99.90
19342;DHT22;9807;48.258;12.690;2023-06-14T06:49:56;24.20;99.90
19342;DHT22;9807;48.258;12.690;2023-06-14T06:52:23;24.40;99.90
19342;DHT22;9807;48.258;12.690;2023-06-14T06:54:49;24.80;99.90
19342;DHT22;9807;48.258;12.690;2023-06-14T06:57:16;24.90;99.90
19342;DHT22;9807;48.258;12.690;2023-06-14T06:59:45;25.20;99.90
19342;DHT22;9807;48.258;12.690;2023-06-14T07:02:11;25.00;99.90
19342;DHT22;9807;48.258;12.690;2023-06-14T07:04:37;24.40;99.90
19342;DHT22;9807;48.258;12.690;2023-06-14T07:07:03;24.50;99.90
19342;DHT22;9807;48.258;12.690;2023-06-14T07:09:32;25.10;99.90
19342;DHT22;9807;48.258;12.690;2023-06-14T07:11:57;25.30;99.90
19342;DHT22;9807;48.258;12.690;2023-06-14T07:14:23;25.00;99.90
19342;DHT22;9807;48.258;12.690;2023-06-14T07:16:50;25.10;99.90
19342;DHT22;9807;48.258;12.690;2023-06-14T07:19:16;25.60;99.90
19342;DHT22;9807;48.258;12.690;2023-06-14T07:21:42;25.50;99.90
19342;DHT22;9807;48.258;12.690;2023-06-14T07:24:08;25.70;99.90
19342;DHT22;9807;48.258;12.690;2023-06-14T07:26:34;26.30;99.90
19342;DHT22;9807;48.258;12.690;2023-06-14T07:29:03;26.60;99.90
19342;DHT22;9807;48.258;12.690;2023-06-14T07:31:29;26.80;99.90
19342;DHT22;9807;48.258;12.690;2023-06-14T07:33:56;26.50;99.90
19342;DHT22;9807;48.258;12.690;2023-06-14T07:36:24;26.50;99.90
19342;DHT22;9807;48.258;12.690;2023-06-14T07:38:50;26.10;99.90
19342;DHT22;9807;48.258;12.690;2023-06-14T07:41:16;25.60;99.90
19342;DHT22;9807;48.258;12.690;2023-06-14T07:43:45;26.10;99.90
19342;DHT22;9807;48.258;12.690;2023-06-14T07:46:11;26.30;99.90
19342;DHT22;9807;48.258;12.690;2023-06-14T07:48:37;26.90;99.90
19342;DHT22;9807;48.258;12.690;2023-06-14T07:51:02;27.10;99.90
19342;DHT22;9807;48.258;12.690;2023-06-14T07:53:29;27.50;99.90
19342;DHT22;9807;48.258;12.690;2023-06-14T07:55:56;27.80;99.90
19342;DHT22;9807;48.258;12.690;2023-06-14T07:58:23;28.10;99.90
19342;DHT22;9807;48.258;12.690;2023-06-14T08:00:48;27.50;99.90
19342;DHT22;9807;48.258;12.690;2023-06-14T08:03:15;26.10;99.90
19342;DHT22;9807;48.258;12.690;2023-06-14T08:05:41;25.50;99.90
19342;DHT22;9807;48.258;12.690;2023-06-14T08:08:06;25.40;99.90
19342;DHT22;9807;48.258;12.690;2023-06-14T08:10:32;25.90;99.90
19342;DHT22;9807;48.258;12.690;2023-06-14T08:12:58;26.50;99.90
19342;DHT22;9807;48.258;12.690;2023-06-14T08:15:23;27.00;99.90
19342;DHT22;9807;48.258;12.690;2023-06-14T08:17:49;27.80;99.90
19342;DHT22;9807;48.258;12.690;2023-06-14T08:20:16;28.30;99.90
19342;DHT22;9807;48.258;12.690;2023-06-14T08:22:42;28.30;99.90
19342;DHT22;9807;48.258;12.690;2023-06-14T08:25:08;28.40;99.90
19342;DHT22;9807;48.258;12.690;2023-06-14T08:27:35;28.70;99.90
19342;DHT22;9807;48.258;12.690;2023-06-14T08:30:01;29.20;99.90
19342;DHT22;9807;48.258;12.690;2023-06-14T08:32:28;29.20;99.90
19342;DHT22;9807;48.258;12.690;2023-06-14T08:34:54;28.70;99.90
19342;DHT22;9807;48.258;12.690;2023-06-14T08:37:19;27.80;99.90
19342;DHT22;9807;48.258;12.690;2023-06-14T08:39:46;27.60;99.90
19342;DHT22;9807;48.258;12.690;2023-06-14T08:42:12;27.60;99.90
19342;DHT22;9807;48.258;12.690;2023-06-14T08:44:39;28.20;99.90
19342;DHT22;9807;48.258;12.690;2023-06-14T08:47:07;28.70;99.90
19342;DHT22;9807;48.258;12.690;2023-06-14T08:49:36;29.10;99.90
19342;DHT22;9807;48.258;12.690;2023-06-14T08:52:05;28.40;99.90
19342;DHT22;9807;48.258;12.690;2023-06-14T08:54:32;28.20;99.90
19342;DHT22;9807;48.258;12.690;2023-06-14T08:57:02;28.80;99.90
19342;DHT22;9807;48.258;12.690;2023-06-14T08:59:30;29.40;99.90
19342;DHT22;9807;48.258;12.690;2023-06-14T09:01:59;29.10;99.90
19342;DHT22;9807;48.258;12.690;2023-06-14T09:04:25;28.40;99.90
19342;DHT22;9807;48.258;12.690;2023-06-14T09:06:55;28.50;99.90
19342;DHT22;9807;48.258;12.690;2023-06-14T09:09:24;27.80;99.90
19342;DHT22;9807;48.258;12.690;2023-06-14T09:11:51;26.50;99.90
19342;DHT22;9807;48.258;12.690;2023-06-14T09:14:20;26.20;99.90
19342;DHT22;9807;48.258;12.690;2023-06-14T09:16:45;26.30;99.90
19342;DHT22;9807;48.258;12.690;2023-06-14T09:19:25;27.00;99.90
19342;DHT22;9807;48.258;12.690;2023-06-14T09:21:52;27.40;99.90
19342;DHT22;9807;48.258;12.690;2023-06-14T09:24:19;27.80;99.90
19342;DHT22;9807;48.258;12.690;2023-06-14T09:26:54;27.90;99.90
19342;DHT22;9807;48.258;12.690;2023-06-14T09:29:19;28.50;99.90
19342;DHT22;9807;48.258;12.690;2023-06-14T09:31:47;28.50;99.90
19342;DHT22;9807;48.258;12.690;2023-06-14T09:34:13;28.40;99.90
19342;DHT22;9807;48.258;12.690;2023-06-14T09:36:40;28.40;99.90
19342;DHT22;9807;48.258;12.690;2023-06-14T09:39:08;28.20;99.90
19342;DHT22;9807;48.258;12.690;2023-06-14T09:41:40;28.40;99.90
19342;DHT22;9807;48.258;12.690;2023-06-14T09:44:08;28.50;99.90
19342;DHT22;9807;48.258;12.690;2023-06-14T09:46:35;28.10;99.90
19342;DHT22;9807;48.258;12.690;2023-06-14T09:49:02;28.30;99.90
19342;DHT22;9807;48.258;12.690;2023-06-14T09:51:28;28.20;99.90
19342;DHT22;9807;48.258;12.690;2023-06-14T09:54:02;28.30;99.90
19342;DHT22;9807;48.258;12.690;2023-06-14T09:56:46;28.30;99.90
19342;DHT22;9807;48.258;12.690;2023-06-14T09:59:13;28.30;99.90
19342;DHT22;9807;48.258;12.690;2023-06-14T10:01:42;28.20;99.90
19342;DHT22;9807;48.258;12.690;2023-06-14T10:04:09;28.30;99.90
19342;DHT22;9807;48.258;12.690;2023-06-14T10:06:39;28.10;99.90
19342;DHT22;9807;48.258;12.690;2023-06-14T10:09:08;28.10;99.90
19342;DHT22;9807;48.258;12.690;2023-06-14T10:11:35;28.10;99.90
19342;DHT22;9807;48.258;12.690;2023-06-14T10:14:02;26.90;99.90
19342;DHT22;9807;48.258;12.690;2023-06-14T10:16:36;25.70;99.90
19342;DHT22;9807;48.258;12.690;2023-06-14T10:21:51;25.80;99.90
19342;DHT22;9807;48.258;12.690;2023-06-14T10:24:31;25.80;99.90
19342;DHT22;9807;48.258;12.690;2023-06-14T10:26:59;25.90;99.90
19342;DHT22;9807;48.258;12.690;2023-06-14T10:29:28;26.10;99.90
19342;DHT22;9807;48.258;12.690;2023-06-14T10:31:58;26.40;99.90
19342;DHT22;9807;48.258;12.690;2023-06-14T10:34:31;26.60;99.90
19342;DHT22;9807;48.258;12.690;2023-06-14T10:37:11;26.80;99.90
19342;DHT22;9807;48.258;12.690;2023-06-14T10:39:44;26.50;99.90
19342;DHT22;9807;48.258;12.690;2023-06-14T10:42:12;25.30;99.90
19342;DHT22;9807;48.258;12.690;2023-06-14T10:44:39;25.10;99.90
19342;DHT22;9807;48.258;12.690;2023-06-14T10:49:55;24.00;99.90
19342;DHT22;9807;48.258;12.690;2023-06-14T10:52:26;23.40;99.90
19342;DHT22;9807;48.258;12.690;2023-06-14T10:55:00;23.30;99.90
19342;DHT22;9807;48.258;12.690;2023-06-14T10:57:27;23.70;99.90
19342;DHT22;9807;48.258;12.690;2023-06-14T10:59:54;24.00;99.90
19342;DHT22;9807;48.258;12.690;2023-06-14T11:05:04;24.60;99.90
19342;DHT22;9807;48.258;12.690;2023-06-14T11:07:38;24.60;99.90
19342;DHT22;9807;48.258;12.690;2023-06-14T11:12:47;24.40;99.90
19342;DHT22;9807;48.258;12.690;2023-06-14T11:15:13;24.70;99.90
19342;DHT22;9807;48.258;12.690;2023-06-14T11:17:39;25.00;99.90
19342;DHT22;9807;48.258;12.690;2023-06-14T11:20:15;25.30;99.90
19342;DHT22;9807;48.258;12.690;2023-06-14T11:22:41;25.50;99.90
19342;DHT22;9807;48.258;12.690;2023-06-14T11:25:14;25.60;99.90
19342;DHT22;9807;48.258;12.690;2023-06-14T11:27:42;25.30;99.90
19342;DHT22;9807;48.258;12.690;2023-06-14T11:30:09;25.20;99.90
19342;DHT22;9807;48.258;12.690;2023-06-14T11:32:36;25.30;99.90
19342;DHT22;9807;48.258;12.690;2023-06-14T11:35:03;25.40;99.90
19342;DHT22;9807;48.258;12.690;2023-06-14T11:37:30;25.50;99.90
19342;DHT22;9807;48.258;12.690;2023-06-14T11:40:16;25.50;99.90
19342;DHT22;9807;48.258;12.690;2023-06-14T11:42:44;25.40;99.90
19342;DHT22;9807;48.258;12.690;2023-06-14T11:45:11;25.50;99.90
19342;DHT22;9807;48.258;12.690;2023-06-14T11:50:03;25.80;99.90
19342;DHT22;9807;48.258;12.690;2023-06-14T11:52:30;25.80;99.90
19342;DHT22;9807;48.258;12.690;2023-06-14T11:54:59;25.50;99.90
19342;DHT22;9807;48.258;12.690;2023-06-14T11:57:25;25.30;99.80
19342;DHT22;9807;48.258;12.690;2023-06-14T11:59:57;25.20;99.90
19342;DHT22;9807;48.258;12.690;2023-06-14T12:02:23;25.20;99.90
19342;DHT22;9807;48.258;12.690;2023-06-14T12:04:50;25.50;99.90
19342;DHT22;9807;48.258;12.690;2023-06-14T12:07:17;25.60;99.90
19342;DHT22;9807;48.258;12.690;2023-06-14T12:12:26;25.20;99.40
19342;DHT22;9807;48.258;12.690;2023-06-14T12:14:53;25.20;99.90
19342;DHT22;9807;48.258;12.690;2023-06-14T12:17:19;25.20;99.90
19342;DHT22;9807;48.258;12.690;2023-06-14T12:19:46;25.00;98.70
19342;DHT22;9807;48.258;12.690;2023-06-14T12:22:13;24.50;97.60
19342;DHT22;9807;48.258;12.690;2023-06-14T12:24:42;24.30;97.40
19342;DHT22;9807;48.258;12.690;2023-06-14T12:27:08;24.50;96.80
19342;DHT22;9807;48.258;12.690;2023-06-14T12:29:34;24.80;97.50
19342;DHT22;9807;48.258;12.690;2023-06-14T12:32:01;24.90;97.60
19342;DHT22;9807;48.258;12.690;2023-06-14T12:34:27;25.00;98.30
19342;DHT22;9807;48.258;12.690;2023-06-14T12:36:56;25.30;98.40
19342;DHT22;9807;48.258;12.690;2023-06-14T12:39:25;25.50;97.90
19342;DHT22;9807;48.258;12.690;2023-06-14T12:41:51;25.80;98.90
19342;DHT22;9807;48.258;12.690;2023-06-14T12:44:17;25.80;95.70
19342;DHT22;9807;48.258;12.690;2023-06-14T12:46:42;25.50;96.40
19342;DHT22;9807;48.258;12.690;2023-06-14T12:49:12;25.50;97.30
19342;DHT22;9807;48.258;12.690;2023-06-14T12:51:39;25.60;97.90
19342;DHT22;9807;48.258;12.690;2023-06-14T12:54:05;25.60;97.80
19342;DHT22;9807;48.258;12.690;2023-06-14T12:56:35;25.50;96.80
19342;DHT22;9807;48.258;12.690;2023-06-14T12:59:01;25.40;96.30
19342;DHT22;9807;48.258;12.690;2023-06-14T13:01:26;25.30;96.70
19342;DHT22;9807;48.258;12.690;2023-06-14T13:03:52;25.20;97.60
19342;DHT22;9807;48.258;12.690;2023-06-14T13:06:25;25.30;98.30
19342;DHT22;9807;48.258;12.690;2023-06-14T13:08:51;25.50;99.30
19342;DHT22;9807;48.258;12.690;2023-06-14T13:11:20;25.60;96.60
19342;DHT22;9807;48.258;12.690;2023-06-14T13:13:45;25.50;96.30
19342;DHT22;9807;48.258;12.690;2023-06-14T13:16:11;25.30;96.70
19342;DHT22;9807;48.258;12.690;2023-06-14T13:18:39;25.20;98.60
19342;DHT22;9807;48.258;12.690;2023-06-14T13:21:05;24.90;99.50
19342;DHT22;9807;48.258;12.690;2023-06-14T13:23:31;24.60;99.90
19342;DHT22;9807;48.258;12.690;2023-06-14T13:25:56;24.70;99.90
19342;DHT22;9807;48.258;12.690;2023-06-14T13:28:28;24.60;99.50
19342;DHT22;9807;48.258;12.690;2023-06-14T13:30:55;24.70;99.90
19342;DHT22;9807;48.258;12.690;2023-06-14T13:33:22;25.10;99.90
19342;DHT22;9807;48.258;12.690;2023-06-14T13:35:49;25.30;99.90
19342;DHT22;9807;48.258;12.690;2023-06-14T13:38:18;25.00;99.50
19342;DHT22;9807;48.258;12.690;2023-06-14T13:40:43;25.00;99.80
19342;DHT22;9807;48.258;12.690;2023-06-14T13:43:09;25.10;99.90
19342;DHT22;9807;48.258;12.690;2023-06-14T13:45:35;25.10;99.80
19342;DHT22;9807;48.258;12.690;2023-06-14T13:48:01;25.40;99.90
19342;DHT22;9807;48.258;12.690;2023-06-14T13:50:27;25.60;99.90
19342;DHT22;9807;48.258;12.690;2023-06-14T13:52:53;25.90;99.90
19342;DHT22;9807;48.258;12.690;2023-06-14T13:55:19;26.00;99.90
19342;DHT22;9807;48.258;12.690;2023-06-14T13:57:44;25.90;97.70
19342;DHT22;9807;48.258;12.690;2023-06-14T14:00:11;25.70;98.00
19342;DHT22;9807;48.258;12.690;2023-06-14T14:02:37;25.60;98.80
19342;DHT22;9807;48.258;12.690;2023-06-14T14:05:05;25.30;99.10
19342;DHT22;9807;48.258;12.690;2023-06-14T14:07:31;25.00;99.10
19342;DHT22;9807;48.258;12.690;2023-06-14T14:09:56;24.80;99.20
19342;DHT22;9807;48.258;12.690;2023-06-14T14:12:25;24.40;99.20
19342;DHT22;9807;48.258;12.690;2023-06-14T14:14:51;24.40;99.60
19342;DHT22;9807;48.258;12.690;2023-06-14T14:17:17;24.50;99.90
19342;DHT22;9807;48.258;12.690;2023-06-14T14:19:43;24.70;99.90
19342;DHT22;9807;48.258;12.690;2023-06-14T14:22:09;24.50;99.90
19342;DHT22;9807;48.258;12.690;2023-06-14T14:24:35;24.40;99.90
19342;DHT22;9807;48.258;12.690;2023-06-14T14:27:03;24.70;99.90
19342;DHT22;9807;48.258;12.690;2023-06-14T14:29:29;25.00;99.90
19342;DHT22;9807;48.258;12.690;2023-06-14T14:31:56;25.30;99.90
19342;DHT22;9807;48.258;12.690;2023-06-14T14:34:26;25.40;99.90
19342;DHT22;9807;48.258;12.690;2023-06-14T14:36:53;25.30;99.90
19342;DHT22;9807;48.258;12.690;2023-06-14T14:39:19;25.20;99.90
19342;DHT22;9807;48.258;12.690;2023-06-14T14:41:44;25.10;99.90
19342;DHT22;9807;48.258;12.690;2023-06-14T14:44:10;24.90;99.90
19342;DHT22;9807;48.258;12.690;2023-06-14T14:46:36;24.90;99.90
19342;DHT22;9807;48.258;12.690;2023-06-14T14:49:01;25.00;99.90
19342;DHT22;9807;48.258;12.690;2023-06-14T14:51:28;25.00;99.90
19342;DHT22;9807;48.258;12.690;2023-06-14T14:53:54;25.00;99.90
19342;DHT22;9807;48.258;12.690;2023-06-14T14:56:19;24.90;99.90
19342;DHT22;9807;48.258;12.690;2023-06-14T14:58:45;25.00;99.90
19342;DHT22;9807;48.258;12.690;2023-06-14T15:01:11;25.00;99.90
19342;DHT22;9807;48.258;12.690;2023-06-14T15:03:37;24.90;99.90
19342;DHT22;9807;48.258;12.690;2023-06-14T15:06:03;25.00;99.90
19342;DHT22;9807;48.258;12.690;2023-06-14T15:08:28;25.10;99.90
19342;DHT22;9807;48.258;12.690;2023-06-14T15:10:57;25.10;99.90
19342;DHT22;9807;48.258;12.690;2023-06-14T15:13:23;25.10;99.90
19342;DHT22;9807;48.258;12.690;2023-06-14T15:15:49;25.20;99.90
19342;DHT22;9807;48.258;12.690;2023-06-14T15:18:15;25.10;99.90
19342;DHT22;9807;48.258;12.690;2023-06-14T15:20:42;25.20;99.90
19342;DHT22;9807;48.258;12.690;2023-06-14T15:23:08;25.50;99.90
19342;DHT22;9807;48.258;12.690;2023-06-14T15:25:36;25.60;99.90
19342;DHT22;9807;48.258;12.690;2023-06-14T15:28:02;25.60;99.90
19342;DHT22;9807;48.258;12.690;2023-06-14T15:30:35;25.70;99.90
19342;DHT22;9807;48.258;12.690;2023-06-14T15:33:00;25.50;99.90
19342;DHT22;9807;48.258;12.690;2023-06-14T15:35:26;25.80;99.90
19342;DHT22;9807;48.258;12.690;2023-06-14T15:37:52;25.90;98.90
19342;DHT22;9807;48.258;12.690;2023-06-14T15:40:17;26.00;99.30
19342;DHT22;9807;48.258;12.690;2023-06-14T15:42:43;25.70;99.90
19342;DHT22;9807;48.258;12.690;2023-06-14T15:45:09;25.10;99.90
19342;DHT22;9807;48.258;12.690;2023-06-14T15:47:35;24.60;99.90
19342;DHT22;9807;48.258;12.690;2023-06-14T15:50:01;24.30;99.90